sensor_id;sensor_type;location;lat;lon;timestamp;P1;durP1;ratioP1;P2;durP2;ratioP2
19434;SDS011;9853;50.848;4.108;2023-06-10T00:01:08;10.65;;;5.35;;
19434;SDS011;9853;50.848;4.108;2023-06-10T00:03:13;9.07;;;5.63;;
19434;SDS011;9853;50.848;4.108;2023-06-10T00:05:14;9.60;;;5.25;;
19434;SDS011;9853;50.848;4.108;2023-06-10T00:07:29;5.78;;;4.97;;
19434;SDS011;9853;50.848;4.108;2023-06-10T00:09:30;7.38;;;5.30;;
19434;SDS011;9853;50.848;4.108;2023-06-10T00:11:42;13.27;;;5.25;;
19434;SDS011;9853;50.848;4.108;2023-06-10T00:13:51;8.35;;;5.40;;
19434;SDS011;9853;50.848;4.108;2023-06-10T00:15:56;8.27;;;5.18;;
19434;SDS011;9853;50.848;4.108;2023-06-10T00:18:01;12.48;;;5.40;;
19434;SDS011;9853;50.848;4.108;2023-06-10T00:20:02;10.43;;;5.78;;
19434;SDS011;9853;50.848;4.108;2023-06-10T00:22:09;9.80;;;5.43;;
19434;SDS011;9853;50.848;4.108;2023-06-10T00:24:13;10.65;;;5.63;;
19434;SDS011;9853;50.848;4.108;2023-06-10T00:26:21;9.73;;;5.78;;
19434;SDS011;9853;50.848;4.108;2023-06-10T00:28:26;12.27;;;6.00;;
19434;SDS011;9853;50.848;4.108;2023-06-10T00:30:26;10.32;;;5.88;;
19434;SDS011;9853;50.848;4.108;2023-06-10T00:32:30;12.00;;;6.15;;
19434;SDS011;9853;50.848;4.108;2023-06-10T00:34:36;10.32;;;5.50;;
19434;SDS011;9853;50.848;4.108;2023-06-10T00:36:49;9.63;;;5.72;;
19434;SDS011;9853;50.848;4.108;2023-06-10T00:39:05;9.55;;;6.05;;
19434;SDS011;9853;50.848;4.108;2023-06-10T00:41:06;11.23;;;6.00;;
19434;SDS011;9853;50.848;4.108;2023-06-10T00:43:10;7.78;;;5.60;;
19434;SDS011;9853;50.848;4.108;2023-06-10T00:45:10;11.15;;;5.82;;
19434;SDS011;9853;50.848;4.108;2023-06-10T00:47:11;9.98;;;6.00;;
19434;SDS011;9853;50.848;4.108;2023-06-10T00:49:12;10.30;;;5.78;;
19434;SDS011;9853;50.848;4.108;2023-06-10T00:51:13;11.35;;;5.75;;
19434;SDS011;9853;50.848;4.108;2023-06-10T00:53:16;10.93;;;6.18;;
19434;SDS011;9853;50.848;4.108;2023-06-10T00:55:17;13.40;;;6.35;;
19434;SDS011;9853;50.848;4.108;2023-06-10T00:57:19;10.48;;;5.70;;
19434;SDS011;9853;50.848;4.108;2023-06-10T00:59:22;10.60;;;6.57;;
19434;SDS011;9853;50.848;4.108;2023-06-10T01:01:22;8.75;;;5.45;;
19434;SDS011;9853;50.848;4.108;2023-06-10T01:03:24;12.60;;;6.43;;
19434;SDS011;9853;50.848;4.108;2023-06-10T01:05:24;10.55;;;6.00;;
19434;SDS011;9853;50.848;4.108;2023-06-10T01:08:01;11.05;;;6.28;;
19434;SDS011;9853;50.848;4.108;2023-06-10T01:10:26;12.00;;;6.05;;
19434;SDS011;9853;50.848;4.108;2023-06-10T01:14:48;11.25;;;6.07;;
19434;SDS011;9853;50.848;4.108;2023-06-10T01:16:51;7.93;;;6.07;;
19434;SDS011;9853;50.848;4.108;2023-06-10T01:18:53;14.40;;;6.07;;
19434;SDS011;9853;50.848;4.108;2023-06-10T01:20:54;8.10;;;6.25;;
19434;SDS011;9853;50.848;4.108;2023-06-10T01:22:56;15.45;;;6.68;;
19434;SDS011;9853;50.848;4.108;2023-06-10T01:25:03;9.45;;;6.22;;
19434;SDS011;9853;50.848;4.108;2023-06-10T01:27:05;7.95;;;6.03;;
19434;SDS011;9853;50.848;4.108;2023-06-10T01:29:17;9.40;;;6.15;;
19434;SDS011;9853;50.848;4.108;2023-06-10T01:33:51;11.43;;;6.97;;
19434;SDS011;9853;50.848;4.108;2023-06-10T01:35:53;8.73;;;5.88;;
19434;SDS011;9853;50.848;4.108;2023-06-10T01:37:55;10.95;;;6.65;;
19434;SDS011;9853;50.848;4.108;2023-06-10T01:39:59;9.77;;;6.30;;
19434;SDS011;9853;50.848;4.108;2023-06-10T01:42:05;11.95;;;6.40;;
19434;SDS011;9853;50.848;4.108;2023-06-10T01:44:07;9.45;;;7.07;;
19434;SDS011;9853;50.848;4.108;2023-06-10T01:46:08;17.13;;;6.60;;
19434;SDS011;9853;50.848;4.108;2023-06-10T01:48:08;16.42;;;6.10;;
19434;SDS011;9853;50.848;4.108;2023-06-10T01:50:09;9.88;;;5.95;;
19434;SDS011;9853;50.848;4.108;2023-06-10T01:52:10;13.35;;;6.20;;
19434;SDS011;9853;50.848;4.108;2023-06-10T01:54:11;13.73;;;6.50;;
19434;SDS011;9853;50.848;4.108;2023-06-10T01:56:11;13.77;;;6.53;;
19434;SDS011;9853;50.848;4.108;2023-06-10T01:58:19;12.25;;;6.20;;
19434;SDS011;9853;50.848;4.108;2023-06-10T02:00:20;9.05;;;6.53;;
19434;SDS011;9853;50.848;4.108;2023-06-10T02:02:21;11.18;;;6.72;;
19434;SDS011;9853;50.848;4.108;2023-06-10T02:04:22;13.05;;;6.63;;
19434;SDS011;9853;50.848;4.108;2023-06-10T02:06:23;12.88;;;6.65;;
19434;SDS011;9853;50.848;4.108;2023-06-10T02:08:24;13.68;;;6.60;;
19434;SDS011;9853;50.848;4.108;2023-06-10T02:10:24;12.80;;;6.35;;
19434;SDS011;9853;50.848;4.108;2023-06-10T02:12:26;14.27;;;6.15;;
19434;SDS011;9853;50.848;4.108;2023-06-10T02:14:27;10.18;;;6.80;;
19434;SDS011;9853;50.848;4.108;2023-06-10T02:16:28;10.77;;;6.80;;
19434;SDS011;9853;50.848;4.108;2023-06-10T02:18:29;8.45;;;5.95;;
19434;SDS011;9853;50.848;4.108;2023-06-10T02:20:30;14.00;;;6.65;;
19434;SDS011;9853;50.848;4.108;2023-06-10T02:22:30;9.88;;;6.13;;
19434;SDS011;9853;50.848;4.108;2023-06-10T02:24:31;12.38;;;6.55;;
19434;SDS011;9853;50.848;4.108;2023-06-10T02:26:32;19.02;;;7.60;;
19434;SDS011;9853;50.848;4.108;2023-06-10T02:28:34;13.52;;;7.03;;
19434;SDS011;9853;50.848;4.108;2023-06-10T02:30:35;15.10;;;6.82;;
19434;SDS011;9853;50.848;4.108;2023-06-10T02:32:38;11.35;;;5.93;;
19434;SDS011;9853;50.848;4.108;2023-06-10T02:34:39;10.07;;;6.75;;
19434;SDS011;9853;50.848;4.108;2023-06-10T02:36:41;14.23;;;6.68;;
19434;SDS011;9853;50.848;4.108;2023-06-10T02:38:42;14.07;;;7.30;;
19434;SDS011;9853;50.848;4.108;2023-06-10T02:40:43;11.07;;;6.60;;
19434;SDS011;9853;50.848;4.108;2023-06-10T02:42:45;14.43;;;6.57;;
19434;SDS011;9853;50.848;4.108;2023-06-10T02:44:47;11.50;;;6.13;;
19434;SDS011;9853;50.848;4.108;2023-06-10T02:46:54;13.25;;;7.22;;
19434;SDS011;9853;50.848;4.108;2023-06-10T02:48:55;15.18;;;6.80;;
19434;SDS011;9853;50.848;4.108;2023-06-10T02:50:58;11.98;;;7.22;;
19434;SDS011;9853;50.848;4.108;2023-06-10T02:53:08;13.88;;;6.55;;
19434;SDS011;9853;50.848;4.108;2023-06-10T02:55:11;9.25;;;6.53;;
19434;SDS011;9853;50.848;4.108;2023-06-10T02:57:14;10.73;;;6.75;;
19434;SDS011;9853;50.848;4.108;2023-06-10T02:59:15;11.60;;;7.00;;
19434;SDS011;9853;50.848;4.108;2023-06-10T03:01:16;10.90;;;7.18;;
19434;SDS011;9853;50.848;4.108;2023-06-10T03:03:27;14.88;;;7.40;;
19434;SDS011;9853;50.848;4.108;2023-06-10T03:05:35;10.57;;;6.70;;
19434;SDS011;9853;50.848;4.108;2023-06-10T03:07:38;10.88;;;7.13;;
19434;SDS011;9853;50.848;4.108;2023-06-10T03:09:39;8.00;;;6.85;;
19434;SDS011;9853;50.848;4.108;2023-06-10T03:11:42;11.93;;;7.50;;
19434;SDS011;9853;50.848;4.108;2023-06-10T03:13:43;10.68;;;7.22;;
19434;SDS011;9853;50.848;4.108;2023-06-10T03:15:47;14.63;;;7.03;;
19434;SDS011;9853;50.848;4.108;2023-06-10T03:17:51;14.20;;;7.00;;
19434;SDS011;9853;50.848;4.108;2023-06-10T03:19:53;12.15;;;7.05;;
19434;SDS011;9853;50.848;4.108;2023-06-10T03:21:57;10.35;;;7.28;;
19434;SDS011;9853;50.848;4.108;2023-06-10T03:24:07;13.00;;;7.13;;
19434;SDS011;9853;50.848;4.108;2023-06-10T03:26:09;11.23;;;6.97;;
19434;SDS011;9853;50.848;4.108;2023-06-10T03:28:15;10.10;;;7.63;;
19434;SDS011;9853;50.848;4.108;2023-06-10T03:30:16;13.45;;;7.30;;
19434;SDS011;9853;50.848;4.108;2023-06-10T03:32:20;15.80;;;7.55;;
19434;SDS011;9853;50.848;4.108;2023-06-10T03:34:20;11.27;;;7.32;;
19434;SDS011;9853;50.848;4.108;2023-06-10T03:36:21;10.13;;;7.05;;
19434;SDS011;9853;50.848;4.108;2023-06-10T03:38:22;13.65;;;7.78;;
19434;SDS011;9853;50.848;4.108;2023-06-10T03:40:23;12.38;;;7.55;;
19434;SDS011;9853;50.848;4.108;2023-06-10T03:42:24;15.88;;;8.05;;
19434;SDS011;9853;50.848;4.108;2023-06-10T03:44:25;13.57;;;7.80;;
19434;SDS011;9853;50.848;4.108;2023-06-10T03:46:26;14.73;;;7.53;;
19434;SDS011;9853;50.848;4.108;2023-06-10T03:48:27;11.55;;;7.55;;
19434;SDS011;9853;50.848;4.108;2023-06-10T03:50:28;10.48;;;8.15;;
19434;SDS011;9853;50.848;4.108;2023-06-10T03:52:28;11.65;;;7.82;;
19434;SDS011;9853;50.848;4.108;2023-06-10T03:54:30;12.48;;;7.80;;
19434;SDS011;9853;50.848;4.108;2023-06-10T03:56:31;12.32;;;7.78;;
19434;SDS011;9853;50.848;4.108;2023-06-10T03:58:32;14.85;;;7.55;;
19434;SDS011;9853;50.848;4.108;2023-06-10T04:00:33;12.90;;;7.75;;
19434;SDS011;9853;50.848;4.108;2023-06-10T04:02:41;10.13;;;7.97;;
19434;SDS011;9853;50.848;4.108;2023-06-10T04:04:49;17.42;;;8.38;;
19434;SDS011;9853;50.848;4.108;2023-06-10T04:06:51;15.45;;;7.43;;
19434;SDS011;9853;50.848;4.108;2023-06-10T04:08:51;11.15;;;8.18;;
19434;SDS011;9853;50.848;4.108;2023-06-10T04:10:54;10.05;;;7.38;;
19434;SDS011;9853;50.848;4.108;2023-06-10T04:12:55;13.20;;;8.15;;
19434;SDS011;9853;50.848;4.108;2023-06-10T04:14:58;15.48;;;7.43;;
19434;SDS011;9853;50.848;4.108;2023-06-10T04:16:59;15.02;;;7.47;;
19434;SDS011;9853;50.848;4.108;2023-06-10T04:19:01;13.18;;;7.97;;
19434;SDS011;9853;50.848;4.108;2023-06-10T04:21:02;16.85;;;8.48;;
19434;SDS011;9853;50.848;4.108;2023-06-10T04:23:04;12.75;;;8.25;;
19434;SDS011;9853;50.848;4.108;2023-06-10T04:25:05;9.85;;;7.47;;
19434;SDS011;9853;50.848;4.108;2023-06-10T04:27:08;15.77;;;8.07;;
19434;SDS011;9853;50.848;4.108;2023-06-10T04:29:09;14.10;;;8.52;;
19434;SDS011;9853;50.848;4.108;2023-06-10T04:31:10;11.45;;;8.27;;
19434;SDS011;9853;50.848;4.108;2023-06-10T04:33:11;13.30;;;8.52;;
19434;SDS011;9853;50.848;4.108;2023-06-10T04:35:14;20.88;;;8.95;;
19434;SDS011;9853;50.848;4.108;2023-06-10T04:37:16;10.15;;;7.90;;
19434;SDS011;9853;50.848;4.108;2023-06-10T04:39:17;11.93;;;8.48;;
19434;SDS011;9853;50.848;4.108;2023-06-10T04:41:17;12.45;;;8.77;;
19434;SDS011;9853;50.848;4.108;2023-06-10T04:43:18;14.63;;;8.77;;
19434;SDS011;9853;50.848;4.108;2023-06-10T04:45:20;18.58;;;8.50;;
19434;SDS011;9853;50.848;4.108;2023-06-10T04:47:21;15.13;;;8.38;;
19434;SDS011;9853;50.848;4.108;2023-06-10T04:49:22;20.55;;;8.60;;
19434;SDS011;9853;50.848;4.108;2023-06-10T04:51:22;12.88;;;9.18;;
19434;SDS011;9853;50.848;4.108;2023-06-10T04:53:23;11.35;;;8.40;;
19434;SDS011;9853;50.848;4.108;2023-06-10T04:55:24;13.07;;;9.30;;
19434;SDS011;9853;50.848;4.108;2023-06-10T04:57:25;15.27;;;8.73;;
19434;SDS011;9853;50.848;4.108;2023-06-10T04:59:26;14.50;;;9.45;;
19434;SDS011;9853;50.848;4.108;2023-06-10T05:01:27;17.13;;;9.00;;
19434;SDS011;9853;50.848;4.108;2023-06-10T05:03:29;17.88;;;8.88;;
19434;SDS011;9853;50.848;4.108;2023-06-10T05:05:29;13.43;;;9.07;;
19434;SDS011;9853;50.848;4.108;2023-06-10T05:07:30;14.50;;;9.25;;
19434;SDS011;9853;50.848;4.108;2023-06-10T05:09:31;14.45;;;8.38;;
19434;SDS011;9853;50.848;4.108;2023-06-10T05:11:32;12.00;;;9.15;;
19434;SDS011;9853;50.848;4.108;2023-06-10T05:13:33;18.90;;;8.10;;
19434;SDS011;9853;50.848;4.108;2023-06-10T05:15:34;20.23;;;8.63;;
19434;SDS011;9853;50.848;4.108;2023-06-10T05:17:35;18.08;;;7.80;;
19434;SDS011;9853;50.848;4.108;2023-06-10T05:19:36;14.82;;;8.18;;
19434;SDS011;9853;50.848;4.108;2023-06-10T05:21:37;15.20;;;8.50;;
19434;SDS011;9853;50.848;4.108;2023-06-10T05:23:38;12.27;;;8.10;;
19434;SDS011;9853;50.848;4.108;2023-06-10T05:25:39;10.77;;;8.00;;
19434;SDS011;9853;50.848;4.108;2023-06-10T05:27:40;13.32;;;8.10;;
19434;SDS011;9853;50.848;4.108;2023-06-10T05:29:42;17.33;;;8.25;;
19434;SDS011;9853;50.848;4.108;2023-06-10T05:31:42;14.88;;;8.13;;
19434;SDS011;9853;50.848;4.108;2023-06-10T05:33:43;12.15;;;8.18;;
19434;SDS011;9853;50.848;4.108;2023-06-10T05:35:44;16.45;;;8.27;;
19434;SDS011;9853;50.848;4.108;2023-06-10T05:37:45;12.32;;;8.45;;
19434;SDS011;9853;50.848;4.108;2023-06-10T05:39:46;12.93;;;8.13;;
19434;SDS011;9853;50.848;4.108;2023-06-10T05:41:46;14.32;;;8.55;;
19434;SDS011;9853;50.848;4.108;2023-06-10T05:43:47;11.35;;;8.50;;
19434;SDS011;9853;50.848;4.108;2023-06-10T05:45:48;11.00;;;7.50;;
19434;SDS011;9853;50.848;4.108;2023-06-10T05:47:49;13.65;;;7.78;;
19434;SDS011;9853;50.848;4.108;2023-06-10T05:49:49;16.05;;;8.95;;
19434;SDS011;9853;50.848;4.108;2023-06-10T05:51:51;11.82;;;8.15;;
19434;SDS011;9853;50.848;4.108;2023-06-10T05:53:52;9.10;;;7.85;;
19434;SDS011;9853;50.848;4.108;2023-06-10T05:55:53;13.80;;;7.95;;
19434;SDS011;9853;50.848;4.108;2023-06-10T05:58:00;16.33;;;7.97;;
19434;SDS011;9853;50.848;4.108;2023-06-10T06:00:01;14.88;;;8.13;;
19434;SDS011;9853;50.848;4.108;2023-06-10T06:02:02;16.08;;;8.20;;
19434;SDS011;9853;50.848;4.108;2023-06-10T06:04:03;10.50;;;7.72;;
19434;SDS011;9853;50.848;4.108;2023-06-10T06:06:04;13.75;;;7.78;;
19434;SDS011;9853;50.848;4.108;2023-06-10T06:08:05;14.43;;;7.72;;
19434;SDS011;9853;50.848;4.108;2023-06-10T06:10:08;14.68;;;7.72;;
19434;SDS011;9853;50.848;4.108;2023-06-10T06:12:09;11.80;;;7.63;;
19434;SDS011;9853;50.848;4.108;2023-06-10T06:14:11;11.10;;;7.55;;
19434;SDS011;9853;50.848;4.108;2023-06-10T06:16:11;13.85;;;8.15;;
19434;SDS011;9853;50.848;4.108;2023-06-10T06:18:12;12.45;;;7.60;;
19434;SDS011;9853;50.848;4.108;2023-06-10T06:20:13;13.38;;;7.93;;
19434;SDS011;9853;50.848;4.108;2023-06-10T06:22:14;11.95;;;8.00;;
19434;SDS011;9853;50.848;4.108;2023-06-10T06:24:15;15.15;;;7.35;;
19434;SDS011;9853;50.848;4.108;2023-06-10T06:26:16;10.00;;;7.40;;
19434;SDS011;9853;50.848;4.108;2023-06-10T06:28:17;13.95;;;7.97;;
19434;SDS011;9853;50.848;4.108;2023-06-10T06:30:19;16.55;;;7.35;;
19434;SDS011;9853;50.848;4.108;2023-06-10T06:32:20;15.57;;;7.82;;
19434;SDS011;9853;50.848;4.108;2023-06-10T06:34:22;10.68;;;7.75;;
19434;SDS011;9853;50.848;4.108;2023-06-10T06:36:23;11.40;;;7.57;;
19434;SDS011;9853;50.848;4.108;2023-06-10T06:38:24;9.35;;;6.85;;
19434;SDS011;9853;50.848;4.108;2023-06-10T06:40:25;10.15;;;6.95;;
19434;SDS011;9853;50.848;4.108;2023-06-10T06:42:26;18.92;;;7.28;;
19434;SDS011;9853;50.848;4.108;2023-06-10T06:44:44;15.57;;;7.68;;
19434;SDS011;9853;50.848;4.108;2023-06-10T06:46:46;16.83;;;7.07;;
19434;SDS011;9853;50.848;4.108;2023-06-10T06:48:47;10.48;;;6.38;;
19434;SDS011;9853;50.848;4.108;2023-06-10T06:50:47;12.85;;;6.10;;
19434;SDS011;9853;50.848;4.108;2023-06-10T06:52:48;12.32;;;6.45;;
19434;SDS011;9853;50.848;4.108;2023-06-10T06:54:49;12.60;;;6.68;;
19434;SDS011;9853;50.848;4.108;2023-06-10T06:56:50;14.50;;;6.78;;
19434;SDS011;9853;50.848;4.108;2023-06-10T06:58:51;17.10;;;6.93;;
19434;SDS011;9853;50.848;4.108;2023-06-10T07:00:51;11.48;;;6.53;;
19434;SDS011;9853;50.848;4.108;2023-06-10T07:02:53;14.13;;;6.43;;
19434;SDS011;9853;50.848;4.108;2023-06-10T07:04:55;11.75;;;5.97;;
19434;SDS011;9853;50.848;4.108;2023-06-10T07:06:56;9.70;;;5.95;;
19434;SDS011;9853;50.848;4.108;2023-06-10T07:08:56;8.65;;;6.13;;
19434;SDS011;9853;50.848;4.108;2023-06-10T07:10:57;11.35;;;6.03;;
19434;SDS011;9853;50.848;4.108;2023-06-10T07:12:58;16.75;;;6.70;;
19434;SDS011;9853;50.848;4.108;2023-06-10T07:14:58;11.77;;;6.38;;
19434;SDS011;9853;50.848;4.108;2023-06-10T07:16:59;13.50;;;6.28;;
19434;SDS011;9853;50.848;4.108;2023-06-10T07:19:00;14.55;;;6.05;;
19434;SDS011;9853;50.848;4.108;2023-06-10T07:21:01;14.00;;;6.15;;
19434;SDS011;9853;50.848;4.108;2023-06-10T07:23:01;10.52;;;6.15;;
19434;SDS011;9853;50.848;4.108;2023-06-10T07:25:02;10.48;;;6.55;;
19434;SDS011;9853;50.848;4.108;2023-06-10T07:27:03;8.80;;;5.50;;
19434;SDS011;9853;50.848;4.108;2023-06-10T07:29:05;11.48;;;5.80;;
19434;SDS011;9853;50.848;4.108;2023-06-10T07:31:06;7.35;;;5.35;;
19434;SDS011;9853;50.848;4.108;2023-06-10T07:33:08;9.60;;;6.63;;
19434;SDS011;9853;50.848;4.108;2023-06-10T07:35:10;10.80;;;5.45;;
19434;SDS011;9853;50.848;4.108;2023-06-10T07:37:11;9.88;;;5.82;;
19434;SDS011;9853;50.848;4.108;2023-06-10T07:39:12;8.73;;;5.78;;
19434;SDS011;9853;50.848;4.108;2023-06-10T07:41:13;8.52;;;5.57;;
19434;SDS011;9853;50.848;4.108;2023-06-10T07:43:14;12.57;;;5.47;;
19434;SDS011;9853;50.848;4.108;2023-06-10T07:45:14;12.63;;;5.30;;
19434;SDS011;9853;50.848;4.108;2023-06-10T07:47:15;9.98;;;5.47;;
19434;SDS011;9853;50.848;4.108;2023-06-10T07:49:16;9.13;;;5.20;;
19434;SDS011;9853;50.848;4.108;2023-06-10T07:51:17;6.20;;;4.80;;
19434;SDS011;9853;50.848;4.108;2023-06-10T07:53:18;10.75;;;5.30;;
19434;SDS011;9853;50.848;4.108;2023-06-10T07:55:18;8.95;;;5.00;;
19434;SDS011;9853;50.848;4.108;2023-06-10T07:57:19;9.55;;;5.30;;
19434;SDS011;9853;50.848;4.108;2023-06-10T07:59:20;8.38;;;5.45;;
19434;SDS011;9853;50.848;4.108;2023-06-10T08:01:22;8.98;;;5.28;;
19434;SDS011;9853;50.848;4.108;2023-06-10T08:03:23;9.90;;;4.80;;
19434;SDS011;9853;50.848;4.108;2023-06-10T08:05:24;9.77;;;5.40;;
19434;SDS011;9853;50.848;4.108;2023-06-10T08:07:25;10.40;;;5.45;;
19434;SDS011;9853;50.848;4.108;2023-06-10T08:09:25;12.75;;;5.10;;
19434;SDS011;9853;50.848;4.108;2023-06-10T08:11:26;8.95;;;5.15;;
19434;SDS011;9853;50.848;4.108;2023-06-10T08:13:30;8.95;;;5.15;;
19434;SDS011;9853;50.848;4.108;2023-06-10T08:15:30;5.93;;;4.80;;
19434;SDS011;9853;50.848;4.108;2023-06-10T08:17:31;9.38;;;4.95;;
19434;SDS011;9853;50.848;4.108;2023-06-10T08:19:32;7.20;;;5.10;;
19434;SDS011;9853;50.848;4.108;2023-06-10T08:21:33;8.60;;;5.45;;
19434;SDS011;9853;50.848;4.108;2023-06-10T08:23:33;6.93;;;5.07;;
19434;SDS011;9853;50.848;4.108;2023-06-10T08:25:34;6.00;;;4.85;;
19434;SDS011;9853;50.848;4.108;2023-06-10T08:27:35;7.32;;;5.28;;
19434;SDS011;9853;50.848;4.108;2023-06-10T08:29:36;7.53;;;5.13;;
19434;SDS011;9853;50.848;4.108;2023-06-10T08:31:36;6.90;;;5.18;;
19434;SDS011;9853;50.848;4.108;2023-06-10T08:33:37;8.10;;;4.78;;
19434;SDS011;9853;50.848;4.108;2023-06-10T08:35:38;7.60;;;4.60;;
19434;SDS011;9853;50.848;4.108;2023-06-10T08:37:38;7.60;;;4.47;;
19434;SDS011;9853;50.848;4.108;2023-06-10T08:39:39;8.45;;;4.72;;
19434;SDS011;9853;50.848;4.108;2023-06-10T08:41:42;10.10;;;4.63;;
19434;SDS011;9853;50.848;4.108;2023-06-10T08:43:46;8.77;;;4.53;;
19434;SDS011;9853;50.848;4.108;2023-06-10T08:45:54;8.68;;;4.88;;
19434;SDS011;9853;50.848;4.108;2023-06-10T08:48:02;6.57;;;4.63;;
19434;SDS011;9853;50.848;4.108;2023-06-10T08:50:08;11.52;;;4.88;;
19434;SDS011;9853;50.848;4.108;2023-06-10T08:52:09;8.80;;;5.40;;
19434;SDS011;9853;50.848;4.108;2023-06-10T08:54:20;8.55;;;4.93;;
19434;SDS011;9853;50.848;4.108;2023-06-10T08:56:25;12.95;;;5.00;;
19434;SDS011;9853;50.848;4.108;2023-06-10T08:58:27;8.98;;;4.90;;
19434;SDS011;9853;50.848;4.108;2023-06-10T09:00:29;8.63;;;5.22;;
19434;SDS011;9853;50.848;4.108;2023-06-10T09:02:31;5.15;;;4.65;;
19434;SDS011;9853;50.848;4.108;2023-06-10T09:04:35;7.40;;;5.00;;
19434;SDS011;9853;50.848;4.108;2023-06-10T09:06:37;11.05;;;4.93;;
19434;SDS011;9853;50.848;4.108;2023-06-10T09:08:38;10.80;;;5.50;;
19434;SDS011;9853;50.848;4.108;2023-06-10T09:10:42;6.78;;;4.85;;
19434;SDS011;9853;50.848;4.108;2023-06-10T09:12:42;12.13;;;5.38;;
19434;SDS011;9853;50.848;4.108;2023-06-10T09:14:43;9.15;;;5.20;;
19434;SDS011;9853;50.848;4.108;2023-06-10T09:16:44;7.97;;;5.03;;
19434;SDS011;9853;50.848;4.108;2023-06-10T09:18:46;7.00;;;5.55;;
19434;SDS011;9853;50.848;4.108;2023-06-10T09:20:48;7.18;;;4.95;;
19434;SDS011;9853;50.848;4.108;2023-06-10T09:22:49;7.43;;;4.88;;
19434;SDS011;9853;50.848;4.108;2023-06-10T09:24:50;9.52;;;5.35;;
19434;SDS011;9853;50.848;4.108;2023-06-10T09:27:07;7.55;;;4.82;;
19434;SDS011;9853;50.848;4.108;2023-06-10T09:29:08;9.77;;;5.90;;
19434;SDS011;9853;50.848;4.108;2023-06-10T09:31:11;9.95;;;5.35;;
19434;SDS011;9853;50.848;4.108;2023-06-10T09:33:13;9.60;;;5.85;;
19434;SDS011;9853;50.848;4.108;2023-06-10T09:35:18;9.43;;;5.32;;
19434;SDS011;9853;50.848;4.108;2023-06-10T09:37:20;6.00;;;5.38;;
19434;SDS011;9853;50.848;4.108;2023-06-10T09:39:21;11.82;;;5.72;;
19434;SDS011;9853;50.848;4.108;2023-06-10T09:41:22;8.82;;;5.40;;
19434;SDS011;9853;50.848;4.108;2023-06-10T09:43:39;10.80;;;5.43;;
19434;SDS011;9853;50.848;4.108;2023-06-10T09:45:41;8.80;;;5.30;;
19434;SDS011;9853;50.848;4.108;2023-06-10T09:47:45;9.20;;;5.68;;
19434;SDS011;9853;50.848;4.108;2023-06-10T09:49:46;14.95;;;5.22;;
19434;SDS011;9853;50.848;4.108;2023-06-10T09:51:51;10.35;;;5.13;;
19434;SDS011;9853;50.848;4.108;2023-06-10T09:53:53;11.20;;;5.00;;
19434;SDS011;9853;50.848;4.108;2023-06-10T09:55:54;7.55;;;5.47;;
19434;SDS011;9853;50.848;4.108;2023-06-10T09:57:55;10.80;;;5.38;;
19434;SDS011;9853;50.848;4.108;2023-06-10T09:59:55;11.98;;;5.30;;
19434;SDS011;9853;50.848;4.108;2023-06-10T10:01:56;6.07;;;5.45;;
19434;SDS011;9853;50.848;4.108;2023-06-10T10:03:57;9.75;;;5.50;;
19434;SDS011;9853;50.848;4.108;2023-06-10T10:05:59;5.57;;;4.93;;
19434;SDS011;9853;50.848;4.108;2023-06-10T10:08:00;7.03;;;5.40;;
19434;SDS011;9853;50.848;4.108;2023-06-10T10:10:01;9.82;;;4.93;;
19434;SDS011;9853;50.848;4.108;2023-06-10T10:12:02;8.68;;;5.70;;
19434;SDS011;9853;50.848;4.108;2023-06-10T10:14:05;9.80;;;5.40;;
19434;SDS011;9853;50.848;4.108;2023-06-10T10:16:11;10.50;;;5.30;;
19434;SDS011;9853;50.848;4.108;2023-06-10T10:18:15;12.18;;;5.45;;
19434;SDS011;9853;50.848;4.108;2023-06-10T10:20:33;10.90;;;5.60;;
19434;SDS011;9853;50.848;4.108;2023-06-10T10:22:38;6.88;;;5.10;;
19434;SDS011;9853;50.848;4.108;2023-06-10T10:24:42;10.75;;;5.25;;
19434;SDS011;9853;50.848;4.108;2023-06-10T10:26:51;7.13;;;4.57;;
19434;SDS011;9853;50.848;4.108;2023-06-10T10:29:07;12.45;;;5.10;;
19434;SDS011;9853;50.848;4.108;2023-06-10T10:31:15;12.57;;;5.28;;
19434;SDS011;9853;50.848;4.108;2023-06-10T10:33:19;7.95;;;5.38;;
19434;SDS011;9853;50.848;4.108;2023-06-10T10:35:30;9.95;;;5.47;;
19434;SDS011;9853;50.848;4.108;2023-06-10T10:37:32;8.55;;;4.82;;
19434;SDS011;9853;50.848;4.108;2023-06-10T10:39:34;9.45;;;5.00;;
19434;SDS011;9853;50.848;4.108;2023-06-10T10:41:36;8.23;;;4.25;;
19434;SDS011;9853;50.848;4.108;2023-06-10T10:43:38;10.82;;;4.88;;
19434;SDS011;9853;50.848;4.108;2023-06-10T10:45:39;8.02;;;5.00;;
19434;SDS011;9853;50.848;4.108;2023-06-10T10:47:39;7.75;;;4.80;;
19434;SDS011;9853;50.848;4.108;2023-06-10T10:49:43;6.60;;;5.10;;
19434;SDS011;9853;50.848;4.108;2023-06-10T10:51:54;9.90;;;5.00;;
19434;SDS011;9853;50.848;4.108;2023-06-10T10:54:17;11.68;;;5.30;;
19434;SDS011;9853;50.848;4.108;2023-06-10T10:56:17;9.18;;;3.95;;
19434;SDS011;9853;50.848;4.108;2023-06-10T10:58:23;7.72;;;4.35;;
19434;SDS011;9853;50.848;4.108;2023-06-10T11:00:31;8.82;;;4.35;;
19434;SDS011;9853;50.848;4.108;2023-06-10T11:02:37;7.22;;;4.38;;
19434;SDS011;9853;50.848;4.108;2023-06-10T11:04:45;4.65;;;4.20;;
19434;SDS011;9853;50.848;4.108;2023-06-10T11:06:53;6.35;;;4.30;;
19434;SDS011;9853;50.848;4.108;2023-06-10T11:08:54;6.75;;;4.20;;
19434;SDS011;9853;50.848;4.108;2023-06-10T11:10:55;9.60;;;4.35;;
19434;SDS011;9853;50.848;4.108;2023-06-10T11:12:56;8.35;;;3.85;;
19434;SDS011;9853;50.848;4.108;2023-06-10T11:14:57;10.00;;;4.38;;
19434;SDS011;9853;50.848;4.108;2023-06-10T11:16:59;7.95;;;4.55;;
19434;SDS011;9853;50.848;4.108;2023-06-10T11:19:00;8.85;;;4.32;;
19434;SDS011;9853;50.848;4.108;2023-06-10T11:21:04;12.30;;;4.45;;
19434;SDS011;9853;50.848;4.108;2023-06-10T11:23:05;7.93;;;4.45;;
19434;SDS011;9853;50.848;4.108;2023-06-10T11:25:13;6.68;;;4.15;;
19434;SDS011;9853;50.848;4.108;2023-06-10T11:27:18;7.22;;;4.10;;
19434;SDS011;9853;50.848;4.108;2023-06-10T11:29:20;7.57;;;4.00;;
19434;SDS011;9853;50.848;4.108;2023-06-10T11:31:22;9.18;;;4.63;;
19434;SDS011;9853;50.848;4.108;2023-06-10T11:33:24;6.13;;;4.43;;
19434;SDS011;9853;50.848;4.108;2023-06-10T11:35:25;7.93;;;4.55;;
19434;SDS011;9853;50.848;4.108;2023-06-10T11:37:27;5.40;;;4.45;;
19434;SDS011;9853;50.848;4.108;2023-06-10T11:39:28;5.65;;;4.30;;
19434;SDS011;9853;50.848;4.108;2023-06-10T11:41:30;5.78;;;4.25;;
19434;SDS011;9853;50.848;4.108;2023-06-10T11:43:31;5.70;;;4.30;;
19434;SDS011;9853;50.848;4.108;2023-06-10T11:45:33;9.40;;;4.10;;
19434;SDS011;9853;50.848;4.108;2023-06-10T11:47:34;4.72;;;3.60;;
19434;SDS011;9853;50.848;4.108;2023-06-10T11:49:34;5.43;;;4.15;;
19434;SDS011;9853;50.848;4.108;2023-06-10T11:51:36;9.88;;;4.18;;
19434;SDS011;9853;50.848;4.108;2023-06-10T11:53:39;8.88;;;4.20;;
19434;SDS011;9853;50.848;4.108;2023-06-10T11:55:43;6.20;;;3.92;;
19434;SDS011;9853;50.848;4.108;2023-06-10T11:57:48;7.50;;;4.47;;
19434;SDS011;9853;50.848;4.108;2023-06-10T12:00:03;7.15;;;4.53;;
19434;SDS011;9853;50.848;4.108;2023-06-10T12:02:17;9.95;;;4.70;;
19434;SDS011;9853;50.848;4.108;2023-06-10T12:04:19;14.70;;;4.78;;
19434;SDS011;9853;50.848;4.108;2023-06-10T12:06:20;12.55;;;4.50;;
19434;SDS011;9853;50.848;4.108;2023-06-10T12:08:20;7.03;;;4.10;;
19434;SDS011;9853;50.848;4.108;2023-06-10T12:10:21;8.45;;;4.35;;
19434;SDS011;9853;50.848;4.108;2023-06-10T12:12:22;6.05;;;4.22;;
19434;SDS011;9853;50.848;4.108;2023-06-10T12:17:00;11.25;;;4.38;;
19434;SDS011;9853;50.848;4.108;2023-06-10T12:19:03;6.50;;;4.35;;
19434;SDS011;9853;50.848;4.108;2023-06-10T12:21:23;5.82;;;4.28;;
19434;SDS011;9853;50.848;4.108;2023-06-10T12:23:24;9.43;;;4.45;;
19434;SDS011;9853;50.848;4.108;2023-06-10T12:25:25;5.40;;;4.53;;
19434;SDS011;9853;50.848;4.108;2023-06-10T12:27:27;10.35;;;4.85;;
19434;SDS011;9853;50.848;4.108;2023-06-10T12:29:29;7.28;;;4.70;;
19434;SDS011;9853;50.848;4.108;2023-06-10T12:31:30;13.27;;;4.82;;